»·PEaware :: N210AR L88-KBUR

N210AR :: L88-KBUR

FLIGHT INFORMATION

Flight Status: Arrived
Operator: Privately registered:
United States
More flights under this callsign
Pilot: Max S. (16657)
Aircraft: CESSNA 172 SKYHAWK
(C172)
More flights by this aircraft type
Origin: L88 New Cuyama
United States
Destination: KBUR Bob Hope-Burbank
United States
More flights between these airports :: More routes between these airports
Route:
File this flight plan on PilotEdge
Remarks:
Altitude:
(Current/Filed)
7,500ft
Speed:
(Current/Filed)
100kts
Departed: 07-May-20 08:28 AM
Arrived: 07-May-20 09:21 AM
Distance/Time
Traveled:
79nm/0:53
Distance/Time
To Go:
Arrived

Flight Plot

Page will automatically refresh every two minutes.

Flight plan parsing failed; only flown route is shown


Map Options




Map Legend


Flown Route
Filed Route
Departure Airport
Arrival Airport
Navaid (VOR, NDB)
Fix

Horizontal Profiles

Position Reports

Time Latitude Longitude Heading Altitude Ground
Speed
07-May-20 08:14 34.943371 -119.690752 121 2150ft 0kts
07-May-20 08:15 34.943371 -119.690752 121 2150ft 0kts
07-May-20 08:16 34.943371 -119.690752 121 2150ft 0kts
07-May-20 08:17 34.943371 -119.690752 121 2150ft 0kts
07-May-20 08:18 34.943371 -119.690752 121 2150ft 0kts
07-May-20 08:19 34.943371 -119.690752 121 2150ft 0kts
07-May-20 08:20 34.943371 -119.690752 121 2150ft 0kts
07-May-20 08:21 34.943371 -119.690752 121 2150ft 0kts
07-May-20 08:22 34.943371 -119.690752 121 2150ft 0kts
07-May-20 08:23 34.943180 -119.690841 218 2151ft 5kts
07-May-20 08:24 34.941500 -119.689322 115 2160ft 12kts
07-May-20 08:25 34.939410 -119.684129 115 2184ft 20kts
07-May-20 08:26 34.937801 -119.680461 305 2202ft 2kts
07-May-20 08:27 34.944429 -119.699186 285 2692ft 72kts
07-May-20 08:28 34.954351 -119.715085 31 3337ft 83kts
07-May-20 08:29 34.955171 -119.686580 100 3804ft 104kts
07-May-20 08:30 34.948715 -119.655761 122 4550ft 83kts
07-May-20 08:31 34.939099 -119.630341 111 5180ft 83kts
07-May-20 08:32 34.930017 -119.604109 124 5765ft 85kts
07-May-20 08:33 34.915127 -119.581952 118 6342ft 83kts
07-May-20 08:34 34.899518 -119.561100 130 6899ft 82kts
07-May-20 08:35 34.884017 -119.539552 123 7396ft 85kts
07-May-20 08:36 34.856207 -119.531379 148 7377ft 119kts
07-May-20 08:37 34.834446 -119.498079 124 7231ft 129kts
07-May-20 08:38 34.814919 -119.463389 123 7245ft 122kts
07-May-20 08:39 34.795911 -119.429128 123 7251ft 122kts
07-May-20 08:40 34.776869 -119.394732 123 7252ft 122kts
07-May-20 08:41 34.757798 -119.360297 123 7249ft 122kts
07-May-20 08:42 34.738678 -119.325795 124 7241ft 123kts
07-May-20 08:43 34.719566 -119.291343 124 7229ft 123kts
07-May-20 08:44 34.700417 -119.256861 124 7228ft 122kts
07-May-20 08:45 34.680386 -119.223633 152 7223ft 122kts
07-May-20 08:46 34.658109 -119.193316 124 7228ft 122kts
07-May-20 08:48 34.638913 -119.159090 123 7228ft 122kts
07-May-20 08:49 34.619921 -119.124631 123 7228ft 122kts
07-May-20 08:50 34.600998 -119.090178 123 7228ft 122kts
07-May-20 08:51 34.582275 -119.056101 123 7350ft 113kts
07-May-20 08:52 34.564026 -119.022851 123 7364ft 122kts
07-May-20 08:53 34.538075 -119.004034 169 7361ft 121kts
07-May-20 08:54 34.507492 -118.986363 152 7363ft 122kts
07-May-20 08:55 34.475958 -118.965787 152 6991ft 135kts
07-May-20 08:56 34.442781 -118.943886 151 6491ft 136kts
07-May-20 08:57 34.409702 -118.921999 151 5992ft 135kts
07-May-20 08:58 34.377299 -118.899704 148 5489ft 131kts
07-May-20 08:59 34.352285 -118.871419 113 5237ft 117kts
07-May-20 09:00 34.341419 -118.836554 109 5370ft 112kts
07-May-20 09:01 34.330630 -118.800604 109 5369ft 114kts
07-May-20 09:02 34.319846 -118.764377 109 5374ft 114kts
07-May-20 09:03 34.309066 -118.728177 109 5380ft 114kts
07-May-20 09:04 34.298212 -118.691772 109 5384ft 115kts
07-May-20 09:04 34.289123 -118.661382 109 5127ft 109kts
07-May-20 09:06 34.278016 -118.624234 110 4534ft 97kts
07-May-20 09:07 34.269819 -118.596839 110 4089ft 97kts
07-May-20 09:07 34.263495 -118.575789 109 3746ft 96kts
07-May-20 09:09 34.255309 -118.548378 108 3392ft 88kts
07-May-20 09:09 34.250689 -118.532811 109 3398ft 77kts
07-May-20 09:10 34.245886 -118.516936 109 3392ft 63kts
07-May-20 09:12 34.242006 -118.500913 102 3441ft 75kts
07-May-20 09:12 34.236444 -118.483346 112 3412ft 116kts
07-May-20 09:13 34.229724 -118.462785 109 3390ft 83kts
07-May-20 09:14 34.223264 -118.444949 118 2746ft 98kts
07-May-20 09:15 34.216367 -118.426635 113 2186ft 93kts
07-May-20 09:16 34.206455 -118.411100 149 1622ft 94kts
07-May-20 09:17 34.198635 -118.396691 91 1260ft 81kts
07-May-20 09:18 34.198063 -118.378771 87 1044ft 77kts
07-May-20 09:19 34.197815 -118.361463 92 740ft 53kts
07-May-20 09:20 34.197017 -118.358004 185 734ft 0kts
07-May-20 09:21 34.196855 -118.358301 278 734ft 11kts
07-May-20 09:22 34.196850 -118.362740 269 734ft 34kts
07-May-20 09:23 34.196358 -118.365018 282 734ft 9kts
07-May-20 09:24 34.196285 -118.366440 250 734ft 5kts
07-May-20 09:25 34.196356 -118.367318 8 734ft 3kts
07-May-20 09:26 34.196437 -118.367305 4 734ft 0kts
07-May-20 09:27 34.196383 -118.367312 6 734ft 0kts
07-May-20 09:28 34.196383 -118.367312 6 734ft 0kts
07-May-20 09:29 34.196383 -118.367312 6 734ft 0kts
07-May-20 09:30 34.196383 -118.367312 6 734ft 0kts
07-May-20 09:31 34.196383 -118.367312 6 734ft 0kts
07-May-20 09:32 34.196383 -118.367312 6 734ft 0kts
07-May-20 09:33 34.196383 -118.367312 6 734ft 0kts
07-May-20 09:34 34.196383 -118.367312 6 734ft 0kts

Navigation Log

Ident Type
Flight plan parsing failed, navigation log unavailable